createdAt,value
2022-09-05T00:01:43.895Z,76867.75
2022-09-05T00:04:25.436Z,76869.81
2022-09-05T00:07:34.328Z,76892.41
2022-09-05T00:10:18.738Z,76884.19
2022-09-05T00:12:48.072Z,76882.13
2022-09-05T00:15:20.515Z,76900.63
2022-09-05T00:19:30.509Z,76892.41
2022-09-05T00:24:25.375Z,76867.75
2022-09-05T00:24:34.204Z,76867.75
2022-09-05T00:27:04.598Z,76863.63
2022-09-05T00:31:06.690Z,76875.97
2022-09-05T00:32:51.171Z,76882.13
2022-09-05T00:35:37.377Z,76890.34
2022-09-05T00:38:36.434Z,76884.19
2022-09-05T00:41:05.245Z,76896.53
2022-09-05T00:43:33.517Z,76882.13
2022-09-05T00:46:00.694Z,76884.19
2022-09-05T00:48:34.766Z,76882.13
2022-09-05T00:51:07.854Z,76873.91
2022-09-05T00:53:34.983Z,76871.84
2022-09-05T00:56:21.228Z,76890.34
2022-09-05T00:59:07.641Z,76884.19
2022-09-05T01:02:07.676Z,76898.59
2022-09-05T01:04:40.793Z,76875.97
2022-09-05T01:07:11.483Z,76863.63
2022-09-05T01:09:44.913Z,76871.84
2022-09-05T01:12:27.394Z,76875.97
2022-09-05T01:14:58.335Z,76871.84
2022-09-05T01:17:25.700Z,76863.63
2022-09-05T01:20:19.523Z,76855.41
2022-09-05T01:23:08.495Z,76851.31
2022-09-05T01:25:36.109Z,76861.56
2022-09-05T01:29:14.178Z,76849.25
2022-09-05T01:33:58.505Z,76859.53
2022-09-05T01:36:40.913Z,76853.34
2022-09-05T01:40:11.229Z,76855.41
2022-09-05T01:42:31.688Z,76855.41
2022-09-05T01:45:16.839Z,76851.31
2022-09-05T01:48:07.258Z,76855.41
2022-09-05T01:51:00.420Z,76847.19
2022-09-05T01:53:32.625Z,76838.97
2022-09-05T01:56:20.111Z,76838.97
2022-09-05T01:59:02.636Z,76834.84
2022-09-05T02:01:35.641Z,76830.75
2022-09-05T02:04:08.770Z,76834.84
2022-09-05T02:06:44.106Z,76826.63
2022-09-05T02:09:30.359Z,76824.56
2022-09-05T02:11:58.339Z,76814.28
2022-09-05T02:14:51.931Z,76801.97
2022-09-05T02:17:50.082Z,76810.19
2022-09-05T02:20:24.329Z,76799.91
2022-09-05T02:22:54.557Z,76801.97
2022-09-05T02:26:00.412Z,76799.91
2022-09-05T02:28:16.651Z,76806.06
2022-09-05T02:30:47.486Z,76822.50
2022-09-05T02:33:34.874Z,76818.41
2022-09-05T02:36:08.077Z,76812.25
2022-09-05T02:39:44.556Z,76810.19
2022-09-05T02:45:10.986Z,76810.19
2022-09-05T02:45:16.997Z,76812.25
2022-09-05T02:48:04.163Z,76814.28
2022-09-05T02:57:25.740Z,76808.13
2022-09-05T02:57:33.104Z,76806.06
2022-09-05T02:57:40.976Z,76801.97
2022-09-05T02:59:36.852Z,76801.97
2022-09-05T03:02:26.434Z,76804.00
2022-09-05T03:05:13.855Z,76810.19
2022-09-05T03:07:58.808Z,76804.00
2022-09-05T03:10:53.500Z,76808.13
2022-09-05T03:13:27.505Z,76797.84
2022-09-05T03:16:10.849Z,76793.75
2022-09-05T03:18:41.452Z,76789.63
2022-09-05T03:21:15.537Z,76791.69
2022-09-05T03:23:59.487Z,76791.69
2022-09-05T03:26:35.787Z,76781.41
2022-09-05T03:29:23.218Z,76777.28
2022-09-05T03:32:09.054Z,76769.06
2022-09-05T03:34:42.348Z,76773.19
2022-09-05T03:37:09.444Z,76779.34
2022-09-05T03:39:55.014Z,76769.06
2022-09-05T03:42:37.346Z,76769.06
2022-09-05T03:45:16.486Z,76760.84
2022-09-05T03:48:27.648Z,76760.84
2022-09-05T03:57:08.884Z,76760.84
2022-09-05T03:57:14.635Z,76760.84
2022-09-05T03:57:25.336Z,76762.91
2022-09-05T03:59:45.582Z,76760.84
2022-09-05T04:07:17.638Z,76750.56
2022-09-05T04:08:17.423Z,76744.41
2022-09-05T04:08:25.310Z,76736.16
2022-09-05T04:11:03.887Z,76719.72
2022-09-05T04:14:05.243Z,76705.34
2022-09-05T04:17:04.748Z,76703.28
2022-09-05T04:19:49.134Z,76693.00
2022-09-05T04:22:20.365Z,76688.91
2022-09-05T04:25:02.757Z,76674.50
2022-09-05T04:27:39.236Z,76653.94
2022-09-05T04:30:38.937Z,76643.66
2022-09-05T04:33:02.946Z,76637.50
2022-09-05T04:35:40.488Z,76637.50
2022-09-05T04:38:14.653Z,76633.38
2022-09-05T04:40:42.051Z,76621.06
2022-09-05T04:43:09.236Z,76612.84
2022-09-05T04:45:40.662Z,76610.78
2022-09-05T04:48:08.214Z,76600.50
2022-09-05T04:50:43.444Z,76590.22
2022-09-05T04:53:29.608Z,76571.72
2022-09-05T04:55:57.980Z,76557.31
2022-09-05T04:58:43.644Z,76549.09
2022-09-05T05:06:04.679Z,76547.06
2022-09-05T05:06:17.542Z,76534.72
2022-09-05T05:07:20.865Z,76512.09
2022-09-05T05:09:49.336Z,76501.81
2022-09-05T05:17:59.665Z,76493.59
2022-09-05T05:18:07.789Z,76481.28
2022-09-05T05:18:53.129Z,76464.81
2022-09-05T05:21:24.355Z,76444.28
2022-09-05T05:23:51.446Z,76429.88
2022-09-05T05:26:21.385Z,76419.59
2022-09-05T05:28:54.754Z,76436.03
2022-09-05T05:31:26.320Z,76431.94
2022-09-05T05:33:53.618Z,76411.38
2022-09-05T05:36:23.405Z,76399.03
2022-09-05T05:38:53.607Z,76390.81
2022-09-05T05:41:20.746Z,76374.38
2022-09-05T05:43:47.926Z,76370.25
2022-09-05T05:46:24.941Z,76368.22
2022-09-05T05:48:57.401Z,76362.03
2022-09-05T05:52:02.677Z,76366.16
2022-09-05T05:54:38.065Z,76333.28
2022-09-05T05:57:15.185Z,76323.00
2022-09-05T06:00:01.052Z,76300.38
2022-09-05T06:02:43.719Z,76308.59
2022-09-05T06:05:14.033Z,76302.44
2022-09-05T06:07:55.883Z,76283.94
2022-09-05T06:15:01.765Z,76244.88
2022-09-05T06:15:06.286Z,76246.94
2022-09-05T06:16:48.394Z,76226.38
2022-09-05T06:19:54.549Z,76218.16
2022-09-05T06:22:27.373Z,76179.09
2022-09-05T06:25:11.082Z,76152.38
2022-09-05T06:28:17.905Z,76140.06
2022-09-05T06:30:40.421Z,76115.38
2022-09-05T06:33:14.732Z,76131.84
2022-09-05T06:36:04.247Z,76115.38
2022-09-05T06:38:50.961Z,76115.38
2022-09-05T06:41:34.072Z,76086.63
2022-09-05T06:44:04.646Z,76080.44
2022-09-05T06:46:54.704Z,76049.63
2022-09-05T06:49:32.524Z,76053.72
2022-09-05T06:52:11.738Z,76045.50
2022-09-05T06:55:12.270Z,76022.91
2022-09-05T06:57:48.436Z,75996.19
2022-09-05T07:00:38.105Z,75996.19
2022-09-05T07:03:24.137Z,75996.19
2022-09-05T07:05:52.298Z,75975.63
2022-09-05T07:08:35.112Z,75950.97
2022-09-05T07:11:15.672Z,75905.75
2022-09-05T07:13:56.431Z,75856.41
2022-09-05T07:16:38.142Z,75839.97
2022-09-05T07:19:14.256Z,75829.69
2022-09-05T07:21:44.708Z,75842.03
2022-09-05T07:24:34.643Z,75831.75
2022-09-05T07:27:05.249Z,75819.44
2022-09-05T07:29:37.193Z,75753.66
2022-09-05T07:32:06.384Z,75729.00
2022-09-05T07:34:34.438Z,75724.88
2022-09-05T07:37:15.442Z,75749.56
2022-09-05T07:39:44.748Z,75724.88
2022-09-05T07:42:14.360Z,75689.94
2022-09-05T07:44:44.523Z,75655.00
2022-09-05T07:47:15.424Z,75659.13
2022-09-05T07:50:24.774Z,75636.50
2022-09-05T07:56:49.004Z,75605.69
2022-09-05T07:57:01.035Z,75589.25
2022-09-05T07:58:12.604Z,75544.03
2022-09-05T08:00:39.743Z,75515.25
2022-09-05T08:03:10.948Z,75548.16
2022-09-05T08:05:43.388Z,75482.38
2022-09-05T08:08:12.441Z,75507.03
2022-09-05T08:11:23.993Z,75486.50
2022-09-05T08:13:46.558Z,75507.03
2022-09-05T08:16:19.531Z,75465.94
2022-09-05T08:19:02.176Z,75443.34
2022-09-05T08:21:39.848Z,75418.69
2022-09-05T08:24:13.862Z,75359.09
2022-09-05T08:26:47.279Z,75322.09
2022-09-05T08:29:17.753Z,75291.28
2022-09-05T08:32:08.493Z,75139.22
2022-09-05T08:34:44.824Z,75133.06
2022-09-05T08:37:22.473Z,74997.44
2022-09-05T08:40:10.047Z,74718.00
2022-09-05T08:46:10.187Z,74494.06
2022-09-05T08:46:43.473Z,74448.88
2022-09-05T08:48:45.106Z,74450.94
2022-09-05T08:51:26.327Z,74467.34
2022-09-05T08:54:05.542Z,74220.84
2022-09-05T08:56:38.505Z,74296.84
2022-09-05T08:59:27.585Z,74436.53
2022-09-05T09:02:44.900Z,74241.38
2022-09-05T09:05:01.587Z,74068.81
2022-09-05T09:07:50.785Z,74276.31
2022-09-05T09:10:25.718Z,74393.41
2022-09-05T09:13:07.327Z,74327.66
2022-09-05T09:15:38.699Z,74270.16
2022-09-05T09:18:12.213Z,74068.81
2022-09-05T09:20:45.047Z,73912.72
2022-09-05T09:23:32.079Z,74187.97
2022-09-05T09:26:05.616Z,74200.28
2022-09-05T09:28:50.235Z,74261.94
2022-09-05T09:31:30.911Z,74202.34
2022-09-05T09:33:58.453Z,74056.50
2022-09-05T09:36:36.513Z,74015.41
2022-09-05T09:39:38.322Z,73875.75
2022-09-05T09:42:45.521Z,73937.38
2022-09-05T09:45:33.400Z,74122.25
2022-09-05T09:48:09.969Z,74335.88
2022-09-05T09:50:37.711Z,74514.63
2022-09-05T09:53:30.660Z,74623.50
2022-09-05T09:56:06.766Z,74800.19
2022-09-05T09:58:40.494Z,74561.88
2022-09-05T10:01:36.739Z,74418.06
2022-09-05T10:08:12.291Z,74165.38
2022-09-05T10:10:48.638Z,74136.63
2022-09-05T10:10:51.625Z,74183.88
2022-09-05T10:13:40.795Z,74134.56
2022-09-05T10:16:17.486Z,74352.31
2022-09-05T10:18:50.279Z,74722.13
2022-09-05T10:21:26.487Z,74853.59
2022-09-05T10:23:53.661Z,74689.25
2022-09-05T10:26:20.778Z,74574.19
2022-09-05T10:29:30.144Z,74257.81
2022-09-05T10:35:08.587Z,73949.69
2022-09-05T10:35:14.790Z,74340.00
2022-09-05T10:37:41.248Z,74553.66
2022-09-05T10:40:09.850Z,74600.91
2022-09-05T10:42:43.529Z,74582.41
2022-09-05T10:45:38.014Z,74563.91
2022-09-05T10:48:23.238Z,74701.56
2022-09-05T10:51:03.319Z,74674.84
2022-09-05T10:53:39.794Z,74479.69
2022-09-05T10:56:16.325Z,74450.94
2022-09-05T11:01:22.057Z,74118.13
2022-09-05T11:02:30.418Z,74173.59
2022-09-05T11:04:49.862Z,74471.47
2022-09-05T11:07:29.615Z,74627.59
2022-09-05T11:10:02.712Z,74372.84
2022-09-05T11:12:32.888Z,74134.56
2022-09-05T11:15:02.682Z,74272.19
2022-09-05T11:17:37.765Z,74253.72
2022-09-05T11:20:22.321Z,74187.97
2022-09-05T11:23:11.752Z,73879.84
2022-09-05T11:25:41.037Z,73697.03
2022-09-05T11:28:19.083Z,73695.00
2022-09-05T11:30:51.131Z,73879.84
2022-09-05T11:36:54.912Z,73898.34
2022-09-05T11:39:56.620Z,74031.84
2022-09-05T11:40:24.543Z,73795.63
2022-09-05T11:42:28.183Z,73959.97
2022-09-05T11:45:14.170Z,74157.16
2022-09-05T11:47:59.425Z,74105.81
2022-09-05T11:50:29.855Z,74303.00
2022-09-05T11:53:08.962Z,74578.31
2022-09-05T11:55:56.613Z,74502.28
2022-09-05T11:58:45.069Z,74368.75
2022-09-05T12:01:42.827Z,74017.47
2022-09-05T12:04:17.249Z,73939.41
2022-09-05T12:06:57.327Z,74294.78
2022-09-05T12:09:29.626Z,74035.97
2022-09-05T12:12:34.233Z,73972.28
2022-09-05T12:15:24.943Z,74315.34
2022-09-05T12:18:19.253Z,74578.31
2022-09-05T12:20:59.035Z,74734.44
2022-09-05T12:23:53.912Z,74734.44
2022-09-05T12:27:39.058Z,74833.06
2022-09-05T12:29:29.455Z,74800.19
2022-09-05T12:33:45.479Z,74878.25
2022-09-05T12:36:12.399Z,74904.97
2022-09-05T12:40:54.757Z,74898.81
2022-09-05T12:41:35.915Z,74759.09
2022-09-05T12:44:36.753Z,74841.28
2022-09-05T12:46:10.930Z,74898.81
2022-09-05T12:49:07.003Z,74952.22
2022-09-05T12:51:46.247Z,74929.63
2022-09-05T12:54:34.167Z,74976.88
2022-09-05T12:59:33.483Z,74878.25
2022-09-05T13:03:09.723Z,74927.56
2022-09-05T13:03:13.478Z,74750.88
2022-09-05T13:05:26.908Z,74426.28
2022-09-05T13:07:58.343Z,74430.38
2022-09-05T13:14:46.186Z,74424.22
2022-09-05T13:14:54.322Z,74313.28
2022-09-05T13:16:23.291Z,74229.06
2022-09-05T13:18:51.969Z,74298.91
2022-09-05T13:21:23.155Z,74290.69
2022-09-05T13:23:50.922Z,74093.47
2022-09-05T13:26:27.458Z,74315.34
2022-09-05T13:29:09.889Z,74261.94
2022-09-05T13:37:55.064Z,74337.94
2022-09-05T13:37:58.802Z,74064.72
2022-09-05T13:38:11.250Z,73910.66
2022-09-05T13:40:19.865Z,74044.19
2022-09-05T13:42:56.931Z,74446.81
2022-09-05T13:45:24.119Z,74374.91
2022-09-05T13:48:00.343Z,74327.66
2022-09-05T13:50:31.393Z,74093.47
2022-09-05T13:53:00.662Z,74040.06
2022-09-05T13:55:38.110Z,74068.81
2022-09-05T13:58:07.377Z,74319.44
2022-09-05T14:00:41.221Z,74333.81
2022-09-05T14:03:31.612Z,74241.38
2022-09-05T14:06:36.587Z,74391.34
2022-09-05T14:09:37.193Z,74319.44
2022-09-05T14:12:17.729Z,74455.03
2022-09-05T14:17:53.993Z,74648.16
2022-09-05T14:20:43.081Z,74713.91
2022-09-05T14:23:13.466Z,74553.66
2022-09-05T14:25:47.743Z,74325.59
2022-09-05T14:28:18.317Z,74364.63
2022-09-05T14:33:32.507Z,74543.38
2022-09-05T14:37:38.732Z,74685.13
2022-09-05T14:37:54.597Z,74804.31
2022-09-05T14:39:57.969Z,74944.00
2022-09-05T14:42:31.428Z,74981.00
2022-09-05T14:45:17.374Z,74960.44
2022-09-05T14:47:47.509Z,74985.09
2022-09-05T14:50:27.705Z,75017.97
2022-09-05T14:55:58.756Z,75100.19
2022-09-05T15:02:44.502Z,75126.88
2022-09-05T15:02:55.255Z,75182.38
2022-09-05T15:04:40.877Z,75165.94
2022-09-05T15:07:20.727Z,75190.59
2022-09-05T15:12:16.177Z,75198.81
2022-09-05T15:12:45.509Z,75207.03
2022-09-05T15:15:25.878Z,75223.47
2022-09-05T15:17:54.118Z,75248.13
2022-09-05T15:20:31.759Z,75264.56
2022-09-05T15:22:58.849Z,75281.00
2022-09-05T15:25:43.056Z,75299.50
2022-09-05T15:28:22.290Z,75322.09
2022-09-05T15:30:57.195Z,75354.97
2022-09-05T15:33:25.681Z,75336.47
2022-09-05T15:35:53.458Z,75344.69
2022-09-05T15:38:38.700Z,75391.97
2022-09-05T15:41:23.805Z,75461.84
2022-09-05T15:43:53.978Z,75599.53
2022-09-05T15:46:22.740Z,75626.25
2022-09-05T15:48:54.256Z,75632.41
2022-09-05T15:51:32.712Z,75609.81
2022-09-05T15:54:02.202Z,75597.47
2022-09-05T15:56:30.165Z,75642.69
2022-09-05T15:58:58.095Z,75661.19
2022-09-05T16:01:58.957Z,75681.72
2022-09-05T16:10:18.166Z,75655.00
2022-09-05T16:10:39.696Z,75679.69
2022-09-05T16:10:42.375Z,75692.00
2022-09-05T16:12:51.619Z,75692.00
2022-09-05T16:19:13.704Z,75733.09
2022-09-05T16:23:20.433Z,75698.16
2022-09-05T16:23:32.505Z,75698.16
2022-09-05T16:23:58.068Z,75704.34
2022-09-05T16:26:28.749Z,75708.44
2022-09-05T16:29:00.277Z,75687.91
2022-09-05T16:31:30.479Z,75704.34
2022-09-05T16:33:57.671Z,75675.56
2022-09-05T16:36:27.311Z,75675.56
2022-09-05T16:39:05.303Z,75716.66
2022-09-05T16:41:38.883Z,75712.56
2022-09-05T16:44:11.301Z,75714.59
2022-09-05T16:46:42.656Z,75714.59
2022-09-05T16:49:41.699Z,75753.66
2022-09-05T16:52:17.026Z,75780.38
2022-09-05T16:54:47.679Z,75794.75
2022-09-05T16:57:16.894Z,75811.22
2022-09-05T16:59:44.648Z,75819.44
2022-09-05T17:02:14.853Z,75805.03
2022-09-05T17:05:03.228Z,75831.75
2022-09-05T17:07:55.487Z,75889.31
2022-09-05T17:10:27.100Z,75905.75
2022-09-05T17:12:55.602Z,75870.81
2022-09-05T17:15:28.191Z,75934.53
2022-09-05T17:18:21.249Z,75930.41
2022-09-05T17:20:47.182Z,75926.28
2022-09-05T17:27:57.000Z,75918.06
2022-09-05T17:29:24.590Z,75922.19
2022-09-05T17:32:19.085Z,75934.53
2022-09-05T17:34:49.884Z,75959.19
2022-09-05T17:37:18.141Z,75963.28
2022-09-05T17:40:04.338Z,75961.25
2022-09-05T17:42:36.357Z,75967.41
2022-09-05T17:45:03.477Z,75996.19
2022-09-05T17:47:49.395Z,75996.19
2022-09-05T17:50:28.189Z,76008.50
2022-09-05T17:53:25.036Z,75987.97
2022-09-05T17:55:52.645Z,76016.72
2022-09-05T17:58:49.234Z,76020.84
2022-09-05T18:01:18.992Z,76039.34
2022-09-05T18:03:49.114Z,76057.84
2022-09-05T18:06:16.332Z,76045.50
2022-09-05T18:08:46.302Z,76074.28
2022-09-05T18:11:14.550Z,76082.50
2022-09-05T18:13:54.048Z,76082.50
2022-09-05T18:16:31.691Z,76066.06
2022-09-05T18:19:32.821Z,76037.28
2022-09-05T18:22:06.504Z,76066.06
2022-09-05T18:24:36.741Z,76082.50
2022-09-05T18:27:44.012Z,76074.28
2022-09-05T18:30:08.567Z,76041.41
2022-09-05T18:33:54.115Z,76049.63
2022-09-05T18:35:58.343Z,76055.78
2022-09-05T18:38:50.818Z,76061.94
2022-09-05T18:41:21.725Z,76068.13
2022-09-05T18:44:12.336Z,76074.28
2022-09-05T18:46:49.940Z,76094.84
2022-09-05T18:50:21.699Z,76084.56
2022-09-05T18:52:15.033Z,76086.63
2022-09-05T18:54:43.395Z,76074.28
2022-09-05T18:57:26.425Z,76070.16
2022-09-05T19:00:00.520Z,76066.06
2022-09-05T19:02:42.797Z,76053.72
2022-09-05T19:05:28.512Z,76090.72
2022-09-05T19:07:59.741Z,76103.06
2022-09-05T19:10:34.848Z,76074.28
2022-09-05T19:13:12.990Z,76078.41
2022-09-05T19:15:48.161Z,76101.00
2022-09-05T19:18:25.777Z,76086.63
2022-09-05T19:21:11.915Z,76055.78
2022-09-05T19:23:45.587Z,76049.63
2022-09-05T19:26:12.719Z,76084.56
2022-09-05T19:36:59.088Z,76070.16
2022-09-05T19:37:07.574Z,76074.28
2022-09-05T19:37:10.401Z,76080.44
2022-09-05T19:37:37.424Z,76049.63
2022-09-05T19:43:09.484Z,76061.94
2022-09-05T19:47:34.265Z,76045.50
2022-09-05T19:47:41.667Z,76041.41
2022-09-05T19:48:26.226Z,76061.94
2022-09-05T19:50:54.321Z,76066.06
2022-09-05T19:53:21.525Z,76074.28
2022-09-05T19:55:48.835Z,76066.06
2022-09-05T19:58:19.459Z,76074.28
2022-09-05T20:01:00.341Z,76057.84
2022-09-05T20:03:34.572Z,76070.16
2022-09-05T20:06:30.109Z,76057.84
2022-09-05T20:09:07.773Z,76061.94
2022-09-05T20:11:45.156Z,76068.13
2022-09-05T20:14:29.179Z,76117.44
2022-09-05T20:16:58.262Z,76117.44
2022-09-05T20:19:32.426Z,76129.78
2022-09-05T20:22:14.349Z,76131.84
2022-09-05T20:24:49.256Z,76125.66
2022-09-05T20:27:16.975Z,76111.28
2022-09-05T20:29:54.849Z,76127.72
2022-09-05T20:32:27.823Z,76135.94
2022-09-05T20:41:43.335Z,76129.78
2022-09-05T20:43:16.800Z,76133.88
2022-09-05T20:43:29.408Z,76123.63
2022-09-05T20:43:52.371Z,76140.06
2022-09-05T20:50:26.057Z,76144.16
2022-09-05T20:54:07.117Z,76146.22
2022-09-05T20:54:16.977Z,76148.28
2022-09-05T20:55:40.353Z,76119.50
2022-09-05T20:58:09.421Z,76148.28
2022-09-05T21:00:37.774Z,76156.50
2022-09-05T21:03:08.537Z,76140.06
2022-09-05T21:05:36.625Z,76168.84
2022-09-05T21:08:15.133Z,76193.50
2022-09-05T21:10:55.675Z,76172.94
2022-09-05T21:13:23.578Z,76189.38
2022-09-05T21:15:52.977Z,76197.59
2022-09-05T21:18:22.541Z,76185.28
2022-09-05T21:20:56.395Z,76185.28
2022-09-05T21:23:36.642Z,76220.22
2022-09-05T21:26:05.301Z,76189.38
2022-09-05T21:28:37.235Z,76160.59
2022-09-05T21:31:12.864Z,76160.59
2022-09-05T21:33:45.956Z,76168.84
2022-09-05T21:36:13.737Z,76205.81
2022-09-05T21:38:41.136Z,76175.00
2022-09-05T21:41:08.401Z,76181.16
2022-09-05T21:47:34.700Z,76172.94
2022-09-05T21:47:47.849Z,76156.50
2022-09-05T21:49:15.307Z,76172.94
2022-09-05T21:51:48.034Z,76189.38
2022-09-05T21:57:45.257Z,76185.28
2022-09-05T21:59:16.155Z,76209.94
2022-09-05T21:59:55.617Z,76205.81
2022-09-05T22:02:23.799Z,76209.94
2022-09-05T22:05:02.941Z,76222.28
2022-09-05T22:07:32.704Z,76251.03
2022-09-05T22:10:00.890Z,76251.03
2022-09-05T22:12:41.669Z,76271.59
2022-09-05T22:15:26.164Z,76265.44
2022-09-05T22:18:17.068Z,76290.09
2022-09-05T22:20:43.822Z,76296.28
2022-09-05T22:23:11.406Z,76296.28
2022-09-05T22:25:38.677Z,76316.81
2022-09-05T22:28:08.458Z,76320.94
2022-09-05T22:30:35.697Z,76320.94
2022-09-05T22:33:05.451Z,76318.88
2022-09-05T22:35:33.316Z,76327.09
2022-09-05T22:38:10.876Z,76329.16
2022-09-05T22:40:40.060Z,76325.03
2022-09-05T22:43:07.920Z,76327.09
2022-09-05T22:45:35.919Z,76327.09
2022-09-05T22:48:09.798Z,76327.09
2022-09-05T22:50:37.275Z,76333.28
2022-09-05T22:53:06.973Z,76374.38
2022-09-05T22:55:35.728Z,76366.16
2022-09-05T22:58:03.567Z,76364.09
2022-09-05T23:00:30.684Z,76357.94
2022-09-05T23:02:58.309Z,76370.25
2022-09-05T23:05:25.522Z,76362.03
2022-09-05T23:07:53.310Z,76374.38
2022-09-05T23:10:20.429Z,76388.78
2022-09-05T23:12:47.722Z,76386.72
2022-09-05T23:15:14.953Z,76390.81
2022-09-05T23:17:42.119Z,76394.94
2022-09-05T23:20:10.898Z,76390.81
2022-09-05T23:22:38.130Z,76397.00
2022-09-05T23:25:07.296Z,76403.16
2022-09-05T23:27:37.907Z,76444.28
2022-09-05T23:30:05.760Z,76431.94
2022-09-05T23:32:32.896Z,76423.72
2022-09-05T23:35:00.001Z,76415.50
2022-09-05T23:37:27.128Z,76411.38
2022-09-05T23:39:54.249Z,76419.59
2022-09-05T23:42:21.724Z,76415.50
2022-09-05T23:44:48.818Z,76415.50
2022-09-05T23:47:16.777Z,76415.50
2022-09-05T23:49:43.900Z,76431.94
2022-09-05T23:52:11.025Z,76419.59
2022-09-05T23:54:38.549Z,76429.88
2022-09-05T23:57:05.679Z,76431.94
2022-09-05T23:59:33.228Z,76440.16
